Capitol Logistics 318


KPHX
Phoenix Sky Harbor International Airport
Phoenix, Arizona, US
KPDX
Portland International Airport
Portland, Oregon, US

Activity Log

Date Flight Route Aircraft Duration
10/05/2020 CPX318 ZEPER1 SISIE DOVEE BTY KO48I SOERN TMBRS2 B763 2h 31m
02/06/2020 CPX318 ZEPER1 SISIE DOVEE BTY KO48I SOERN TMBRS2 B763 3h 00m
03/19/2019 CPX318 ZEPER1 SISIE DOVEE BTY KO48I SOERN TMBRS2 B763 2h 33m
01/28/2019 CPX318 ZEPER1 SISIE DOVEE BTY KO48I SOERN TMBRS2 B763 2h 37m

Route Details

Aircraft Information
Primary: Boeing 767-300BDSF
Backup: Not Available
Route Data
Distance: 878nm
Sched. Duration: 3h 00m
Avg. Duration: 2h 50m (-50m)
Times Flown: 4
Recm'd Route: ZEPER1 SISIE DOVEE BTY KO48I SOERN TMBRS2
Planned Altitude: 36,000ft
Origin Wx: KPHX 191751Z 05010KT 10SM BKN090 BKN150 17/06 A2991 RMK AO2 SLP120 60001 T01670056 10172 20133 51010 $
Dest. Wx: KPDX 191753Z 31005KT 10SM SCT200 BKN250 04/02 A3049 RMK AO2 SLP324 I6001 T00440017 10044 21006 55005
Notes:

Financial History
Total Freight: 371,912lbs
Average Load: 92,978lbs/flt
Fuel Used: 118,629lbs
Avg. Fuel Used: 29,657lbs/flt
Fuel Expense: $96,089
Avg. Fuel Expense: $24,022
Avg. Fuel Cost: $0.81/lbs
Total Gross Income: $498,808
Pilot Pay: $546
Total Expenses: $54,079
Total Revenue: $346,865
Average Revenue: $124,702.03